Time;durP1;ratioP1;P1;durP2;ratioP2;P2;SDS_P1;SDS_P2;PMS_P1;PMS_P2;Temp;Humidity;BMP_temperature;BMP_pressure;BME280_temperature;BME280_humidity;BME280_pressure;Samples;Min_cycle;Max_cycle;Signal;HPM_P1;HPM_P2
2023/07/20 00:02:15;;;;;;;;;;;;;;;27.57;38.45;100401.44;2362139;74;51560;-75
2023/07/20 00:05:21;;;;;;;;;;;;;;;27.56;38.43;100395.69;2395361;74;51472;-76
2023/07/20 00:08:22;;;;;;;;;;;;;;;27.57;38.45;100400.62;2338745;74;52576;-76
2023/07/20 00:11:25;;;;;;;;;;;;;;;27.56;38.45;100396.23;2400052;73;51350;-75
2023/07/20 00:14:27;;;;;;;;;;;;;;;27.56;38.46;100401.67;2401564;73;50688;-75
2023/07/20 00:17:28;;;;;;;;;;;;;;;27.55;38.50;100406.29;2397699;74;50422;-75
2023/07/20 00:20:30;;;;;;;;;;;;;;;27.55;38.49;100402.21;2323922;74;51018;-75
2023/07/20 00:23:31;;;;;;;;;;;;;;;27.54;38.51;100401.94;2362203;74;50088;-75
2023/07/20 00:26:33;;;;;;;;;;;;;;;27.55;38.51;100409.55;2361452;74;50343;-76
2023/07/20 00:29:35;;;;;;;;;;;;;;;27.55;38.49;100400.04;2395134;73;50586;-76
2023/07/20 00:32:36;;;;;;;;;;;;;;;27.54;38.50;100403.30;2335062;74;51077;-75
2023/07/20 00:35:38;;;;;;;;;;;;;;;27.54;38.48;100400.58;2394990;73;50257;-76
2023/07/20 00:38:40;;;;;;;;;;;;;;;27.55;38.52;100410.91;2394845;73;51702;-76
2023/07/20 00:41:42;;;;;;;;;;;;;;;27.53;38.53;100398.91;2395083;74;50764;-76
2023/07/20 00:44:44;;;;;;;;;;;;;;;27.54;38.50;100396.50;2389156;74;50936;-75
2023/07/20 00:47:45;;;;;;;;;;;;;;;27.54;38.52;100403.81;2361301;74;51599;-75
2023/07/20 00:50:48;;;;;;;;;;;;;;;27.53;38.54;100405.71;2395681;74;51410;-76
2023/07/20 00:53:49;;;;;;;;;;;;;;;27.53;38.56;100410.33;2396812;74;50692;-75
2023/07/20 00:56:51;;;;;;;;;;;;;;;27.52;38.55;100400.00;2391205;73;52592;-75
2023/07/20 00:59:53;;;;;;;;;;;;;;;27.52;38.57;100404.62;2397579;74;50576;-75
2023/07/20 01:02:54;;;;;;;;;;;;;;;27.51;38.57;100403.80;2397378;73;50481;-76
2023/07/20 01:05:58;;;;;;;;;;;;;;;27.52;38.56;100405.44;2397348;73;50342;-75
2023/07/20 01:09:04;;;;;;;;;;;;;;;27.51;38.58;100394.29;2363511;74;49694;-75
2023/07/20 01:12:07;;;;;;;;;;;;;;;27.50;38.57;100399.96;2397392;74;50645;-75
2023/07/20 01:15:09;;;;;;;;;;;;;;;27.51;38.56;100403.80;2397204;73;51551;-75
2023/07/20 01:18:10;;;;;;;;;;;;;;;27.50;38.58;100407.58;2397243;74;50332;-76
2023/07/20 01:21:15;;;;;;;;;;;;;;;27.50;38.59;100408.93;2390635;74;50688;-75
2023/07/20 01:24:21;;;;;;;;;;;;;;;27.50;38.59;100405.39;2395655;74;51559;-75
2023/07/20 01:27:41;;;;;;;;;;;;;;;27.49;38.60;100403.22;2394485;74;50261;-75
2023/07/20 01:30:56;;;;;;;;;;;;;;;27.49;38.60;100409.20;2395211;74;51345;-76
2023/07/20 01:33:58;;;;;;;;;;;;;;;27.49;38.60;100409.20;2394961;74;51569;-75
2023/07/20 01:36:59;;;;;;;;;;;;;;;27.48;38.62;100409.71;2394897;74;52524;-76
2023/07/20 01:40:01;;;;;;;;;;;;;;;27.48;38.64;100411.61;2395146;73;51405;-75
2023/07/20 01:43:03;;;;;;;;;;;;;;;27.47;38.64;100412.16;2395134;74;51591;-75
2023/07/20 01:46:04;;;;;;;;;;;;;;;27.47;38.65;100410.80;2389193;74;49599;-76
2023/07/20 01:49:06;;;;;;;;;;;;;;;27.47;38.63;100407.26;2361450;74;52121;-75
2023/07/20 01:52:08;;;;;;;;;;;;;;;27.46;38.65;100399.64;2396347;74;50408;-75
2023/07/20 01:55:09;;;;;;;;;;;;;;;27.46;38.64;100401.00;2391610;74;50124;-76
2023/07/20 01:58:11;;;;;;;;;;;;;;;27.47;38.63;100403.19;2391479;73;51569;-75
2023/07/20 02:01:12;;;;;;;;;;;;;;;27.46;38.65;100403.72;2397579;74;50600;-75
2023/07/20 02:04:14;;;;;;;;;;;;;;;27.46;38.65;100405.59;2397492;74;51435;-76
2023/07/20 02:07:15;;;;;;;;;;;;;;;27.45;38.66;100398.52;2391305;74;50667;-75
2023/07/20 02:10:17;;;;;;;;;;;;;;;27.45;38.65;100403.96;2391568;74;52303;-75
2023/07/20 02:13:19;;;;;;;;;;;;;;;27.45;38.65;100406.13;2397526;74;51512;-75
2023/07/20 02:16:20;;;;;;;;;;;;;;;27.44;38.68;100408.58;2391506;73;50016;-75
2023/07/20 02:19:22;;;;;;;;;;;;;;;27.44;38.67;100404.50;2391542;73;51495;-75
2023/07/20 02:22:24;;;;;;;;;;;;;;;27.44;38.68;100403.14;2362889;74;51139;-75
2023/07/20 02:25:25;;;;;;;;;;;;;;;27.44;38.68;100398.25;2361920;74;50662;-75
2023/07/20 02:28:27;;;;;;;;;;;;;;;27.43;38.68;100393.33;2395182;74;51480;-75
2023/07/20 02:31:29;;;;;;;;;;;;;;;27.44;38.67;100394.17;2395313;74;51414;-75
2023/07/20 02:34:30;;;;;;;;;;;;;;;27.42;38.69;100390.33;2395113;73;51425;-76
2023/07/20 02:37:32;;;;;;;;;;;;;;;27.43;38.70;100397.41;2394929;74;52360;-75
2023/07/20 02:40:34;;;;;;;;;;;;;;;27.41;38.71;100391.42;2395093;74;50707;-75
2023/07/20 02:43:35;;;;;;;;;;;;;;;27.41;38.72;100390.56;2395049;73;51536;-75
2023/07/20 02:46:37;;;;;;;;;;;;;;;27.41;38.71;100391.42;2334519;74;51770;-74
2023/07/20 02:49:39;;;;;;;;;;;;;;;27.41;38.71;100394.14;2394853;74;50812;-75
2023/07/20 02:52:40;;;;;;;;;;;;;;;27.41;38.71;100398.21;2396531;74;51529;-75
2023/07/20 02:55:42;;;;;;;;;;;;;;;27.41;38.71;100407.72;2397523;74;50187;-75
2023/07/20 02:58:45;;;;;;;;;;;;;;;27.39;38.74;100418.55;2391311;73;51142;-76
2023/07/20 03:01:47;;;;;;;;;;;;;;;27.40;38.75;100416.92;2391664;74;50738;-74
2023/07/20 03:04:48;;;;;;;;;;;;;;;27.39;38.75;100407.68;2397332;73;50589;-75
2023/07/20 03:07:50;;;;;;;;;;;;;;;27.38;38.74;100421.78;2397122;73;50290;-74
2023/07/20 03:10:52;;;;;;;;;;;;;;;27.39;38.75;100419.36;2391492;74;51782;-74
2023/07/20 03:13:53;;;;;;;;;;;;;;;27.38;38.77;100425.85;2391593;73;51549;-76
2023/07/20 03:16:55;;;;;;;;;;;;;;;27.38;38.77;100424.49;2378799;73;50364;-75
2023/07/20 03:19:56;;;;;;;;;;;;;;;27.38;38.78;100428.57;2362196;74;50545;-75
2023/07/20 03:22:58;;;;;;;;;;;;;;;27.37;38.79;100431.02;2335110;74;52511;-75
2023/07/20 03:26:00;;;;;;;;;;;;;;;27.37;38.80;100433.73;2361471;74;50708;-76
2023/07/20 03:29:01;;;;;;;;;;;;;;;27.36;38.79;100429.38;2361299;74;51564;-75
2023/07/20 03:32:03;;;;;;;;;;;;;;;27.35;38.82;100425.81;2395093;74;50718;-75
2023/07/20 03:35:05;;;;;;;;;;;;;;;27.36;38.81;100428.02;2334965;74;52355;-75
2023/07/20 03:38:07;;;;;;;;;;;;;;;27.37;38.79;100433.73;2394794;74;50625;-76
2023/07/20 03:41:09;;;;;;;;;;;;;;;27.35;38.83;100430.42;2361728;74;51602;-75
2023/07/20 03:44:10;;;;;;;;;;;;;;;27.35;38.81;100424.99;2361799;74;50267;-75
2023/07/20 03:47:12;;;;;;;;;;;;;;;27.35;38.81;100431.25;2389615;73;51928;-75
2023/07/20 03:50:14;;;;;;;;;;;;;;;27.35;38.79;100424.99;2395830;74;50762;-75
2023/07/20 03:53:15;;;;;;;;;;;;;;;27.34;38.82;100434.23;2361723;74;50264;-75
2023/07/20 03:56:17;;;;;;;;;;;;;;;27.34;38.82;100430.97;2394942;73;50257;-75
2023/07/20 03:59:18;;;;;;;;;;;;;;;27.34;38.83;100430.16;2335090;74;51006;-75
2023/07/20 04:02:20;;;;;;;;;;;;;;;27.33;38.82;100429.34;2395085;74;50730;-75
2023/07/20 04:05:22;;;;;;;;;;;;;;;27.34;38.84;100442.38;2395092;74;50621;-74
2023/07/20 04:08:24;;;;;;;;;;;;;;;27.34;38.86;100439.66;2395045;74;51453;-75
2023/07/20 04:11:26;;;;;;;;;;;;;;;27.32;38.83;100437.18;2389171;74;51137;-75
2023/07/20 04:14:27;;;;;;;;;;;;;;;27.32;38.83;100439.89;2361593;74;51503;-75
2023/07/20 04:17:29;;;;;;;;;;;;;;;27.32;38.85;100449.41;2349015;74;54054;-75
2023/07/20 04:20:31;;;;;;;;;;;;;;;27.33;38.83;100442.07;2362095;74;50621;-74
2023/07/20 04:23:32;;;;;;;;;;;;;;;27.33;38.83;100440.71;2361721;74;49975;-75
2023/07/20 04:26:34;;;;;;;;;;;;;;;27.33;38.83;100442.07;2361385;74;50388;-75
2023/07/20 04:29:35;;;;;;;;;;;;;;;27.31;38.85;100445.05;2361485;74;50610;-75
2023/07/20 04:32:37;;;;;;;;;;;;;;;27.31;38.85;100449.12;2395053;74;51315;-75
2023/07/20 04:35:51;;;;;;;;;;;;;;;27.31;38.88;100449.67;2361371;74;51453;-74
2023/07/20 04:38:53;;;;;;;;;;;;;;;27.31;38.87;100455.11;2361212;74;50689;-76
2023/07/20 04:41:55;;;;;;;;;;;;;;;27.30;38.87;100460.23;2395114;74;50201;-75
2023/07/20 04:44:56;;;;;;;;;;;;;;;27.30;38.88;100463.77;2361348;74;49995;-75
2023/07/20 04:47:58;;;;;;;;;;;;;;;27.31;38.88;100457.82;2335437;74;51203;-74
2023/07/20 04:50:59;;;;;;;;;;;;;;;27.30;38.87;100460.23;2361527;74;49892;-75
2023/07/20 04:54:01;;;;;;;;;;;;;;;27.31;38.86;100457.82;2395142;74;50498;-75
2023/07/20 04:57:03;;;;;;;;;;;;;;;27.30;38.86;100465.66;2361411;74;51501;-75
2023/07/20 05:00:05;;;;;;;;;;;;;;;27.30;38.87;100461.59;2334896;74;49436;-74
2023/07/20 05:03:07;;;;;;;;;;;;;;;27.32;38.86;100458.09;2361572;74;51500;-75
2023/07/20 05:06:08;;;;;;;;;;;;;;;27.32;38.86;100454.02;2394795;74;51437;-77
2023/07/20 05:09:10;;;;;;;;;;;;;;;27.31;38.89;100455.92;2361473;74;51572;-75
2023/07/20 05:12:12;;;;;;;;;;;;;;;27.34;38.87;100455.97;2389015;74;51202;-76
2023/07/20 05:15:13;;;;;;;;;;;;;;;27.39;38.81;100461.48;2361464;74;51520;-75
2023/07/20 05:18:19;;;;;;;;;;;;;;;27.39;38.86;100462.02;2362380;74;51435;-75
2023/07/20 05:21:18;;;;;;;;;;;;;;;27.39;38.90;100472.35;2391299;74;23169;-75
2023/07/20 05:24:20;;;;;;;;;;;;;;;27.38;38.93;100469.87;2363880;74;51081;-75
2023/07/20 05:27:22;;;;;;;;;;;;;;;27.38;38.90;100466.61;2397334;74;50246;-74
2023/07/20 05:30:24;;;;;;;;;;;;;;;27.45;38.84;100475.97;2391584;74;51535;-74
2023/07/20 05:33:25;;;;;;;;;;;;;;;27.43;38.86;100467.23;2391471;73;50678;-75
2023/07/20 05:36:27;;;;;;;;;;;;;;;27.41;38.90;100462.58;2363553;74;51628;-75
2023/07/20 05:39:29;;;;;;;;;;;;;;;27.42;38.86;100465.06;2391614;74;51480;-75
2023/07/20 05:42:30;;;;;;;;;;;;;;;27.43;38.85;100465.34;2391721;73;50343;-75
2023/07/20 05:45:32;;;;;;;;;;;;;;;27.44;38.85;100477.87;2397515;74;50031;-76
2023/07/20 05:48:33;;;;;;;;;;;;;;;27.50;38.78;100475.52;2362430;74;51635;-75
2023/07/20 05:51:35;;;;;;;;;;;;;;;27.58;38.76;100479.17;2361299;74;50637;-75
2023/07/20 05:54:37;;;;;;;;;;;;;;;27.53;38.94;100483.16;2361546;74;51445;-75
2023/07/20 05:57:41;;;;;;;;;;;;;;;27.53;38.90;100489.14;2394836;73;52027;-75
2023/07/20 06:00:41;;;;;;;;;;;;;;;27.55;38.85;100482.39;2395422;73;22525;-75
2023/07/20 06:03:43;;;;;;;;;;;;;;;27.55;38.80;100482.39;2395158;74;50611;-75
2023/07/20 06:06:45;;;;;;;;;;;;;;;27.54;38.83;100482.62;2361524;74;50383;-74
2023/07/20 06:09:47;;;;;;;;;;;;;;;27.52;38.83;100493.77;2395384;73;51495;-74
2023/07/20 06:12:48;;;;;;;;;;;;;;;27.51;38.82;100489.92;2335095;74;52472;-75
2023/07/20 06:15:50;;;;;;;;;;;;;;;27.48;38.86;100492.59;2389397;74;51150;-74
2023/07/20 06:18:51;;;;;;;;;;;;;;;27.46;38.88;100491.19;2395787;74;50256;-74
2023/07/20 06:21:53;;;;;;;;;;;;;;;27.44;38.89;100492.81;2389113;73;50613;-75
2023/07/20 06:24:55;;;;;;;;;;;;;;;27.45;38.86;100501.78;2335610;74;52541;-76
2023/07/20 06:27:56;;;;;;;;;;;;;;;27.44;38.87;100511.84;2361251;74;51496;-75
2023/07/20 06:31:01;;;;;;;;;;;;;;;27.44;38.88;100500.97;2395094;73;50601;-75
2023/07/20 06:34:03;;;;;;;;;;;;;;;27.42;38.88;100503.64;2395063;74;50954;-75
2023/07/20 06:37:05;;;;;;;;;;;;;;;27.42;38.89;100509.08;2394718;74;51503;-75
2023/07/20 06:40:12;;;;;;;;;;;;;;;27.42;38.88;100509.89;2361587;74;50599;-74
2023/07/20 06:43:11;;;;;;;;;;;;;;;27.44;38.84;100498.80;2394686;74;22298;-74
2023/07/20 06:46:13;;;;;;;;;;;;;;;27.43;38.82;100511.53;2361507;74;50637;-75
2023/07/20 06:49:16;;;;;;;;;;;;;;;27.50;38.75;100513.56;2334872;74;51690;-75
2023/07/20 06:52:18;;;;;;;;;;;;;;;27.55;38.70;100510.11;2392293;74;51591;-75
2023/07/20 06:55:19;;;;;;;;;;;;;;;27.51;38.80;100507.08;2389984;73;51395;-75
2023/07/20 06:58:22;;;;;;;;;;;;;;;27.50;38.81;100512.74;2394907;74;51438;-76
2023/07/20 07:01:23;;;;;;;;;;;;;;;27.50;38.80;100523.61;2335097;74;51197;-76
2023/07/20 07:04:25;;;;;;;;;;;;;;;27.50;38.83;100522.25;2394990;74;50307;-74
2023/07/20 07:07:26;;;;;;;;;;;;;;;27.51;38.78;100526.09;2361353;74;50583;-75
2023/07/20 07:10:28;;;;;;;;;;;;;;;27.50;38.81;100522.25;2361491;74;51390;-76
2023/07/20 07:13:30;;;;;;;;;;;;;;;27.51;38.80;100516.59;2335003;74;51863;-75
2023/07/20 07:16:32;;;;;;;;;;;;;;;27.49;38.84;100516.55;2361395;74;50664;-75
2023/07/20 07:19:33;;;;;;;;;;;;;;;27.62;38.68;100518.93;2395125;74;51431;-75
2023/07/20 07:22:35;;;;;;;;;;;;;;;27.69;38.70;100511.95;2362565;74;50652;-75
2023/07/20 07:25:36;;;;;;;;;;;;;;;27.69;38.81;100519.57;2362309;74;52454;-74
2023/07/20 07:28:38;;;;;;;;;;;;;;;27.66;38.83;100517.35;2361227;74;51430;-75
2023/07/20 07:31:40;;;;;;;;;;;;;;;27.66;38.84;100513.27;2361591;74;50629;-75
2023/07/20 07:34:41;;;;;;;;;;;;;;;27.58;38.99;100525.37;2361638;74;51504;-75
2023/07/20 07:37:43;;;;;;;;;;;;;;;27.57;38.99;100523.74;2389236;74;51681;-75
2023/07/20 07:40:44;;;;;;;;;;;;;;;27.61;38.88;100527.32;2396051;74;51463;-75
2023/07/20 07:43:46;;;;;;;;;;;;;;;27.63;38.83;100518.39;2395244;74;51499;-74
2023/07/20 07:46:47;;;;;;;;;;;;;;;27.57;38.94;100523.74;2394958;74;50275;-75
2023/07/20 07:49:50;;;;;;;;;;;;;;;27.61;38.86;100515.09;2389448;74;51800;-75
2023/07/20 07:52:52;;;;;;;;;;;;;;;27.61;38.81;100513.73;2363829;74;50698;-75
2023/07/20 07:55:53;;;;;;;;;;;;;;;27.74;38.71;100510.13;2367021;74;50719;-76
2023/07/20 07:58:55;;;;;;;;;;;;;;;27.76;38.72;100519.41;2398118;73;50688;-75
2023/07/20 08:01:58;;;;;;;;;;;;;;;27.70;38.83;100519.05;2364458;74;52488;-76
2023/07/20 08:05:00;;;;;;;;;;;;;;;27.68;38.85;100527.99;2392456;74;50141;-75
2023/07/20 08:08:03;;;;;;;;;;;;;;;27.68;38.78;100529.34;2394356;73;51488;-77
2023/07/20 08:11:05;;;;;;;;;;;;;;;27.67;38.76;100523.61;2394721;73;50748;-75
2023/07/20 08:14:06;;;;;;;;;;;;;;;27.69;38.69;100533.16;2393566;73;51478;-77
2023/07/20 08:17:08;;;;;;;;;;;;;;;27.68;38.73;100525.27;2394419;74;50800;-76
2023/07/20 08:20:17;;;;;;;;;;;;;;;27.66;38.77;100526.05;2399980;73;51496;-75
2023/07/20 08:23:13;;;;;;;;;;;;;;;27.65;38.74;100522.52;2385129;74;23192;-77
2023/07/20 08:26:15;;;;;;;;;;;;;;;27.67;38.72;100539.41;2364532;74;50116;-78
2023/07/20 08:29:17;;;;;;;;;;;;;;;27.66;38.67;100550.52;2395557;74;51540;-76
2023/07/20 08:32:18;;;;;;;;;;;;;;;27.66;38.67;100554.59;2362071;74;51405;-76
2023/07/20 08:35:20;;;;;;;;;;;;;;;27.62;38.71;100560.22;2362070;74;51398;-76
2023/07/20 08:38:21;;;;;;;;;;;;;;;27.62;38.67;100560.22;2335064;74;51680;-74
2023/07/20 08:41:23;;;;;;;;;;;;;;;27.67;38.55;100556.22;2389345;73;50077;-76
2023/07/20 08:44:25;;;;;;;;;;;;;;;27.73;38.45;100554.72;2395423;74;51353;-75
2023/07/20 08:47:27;;;;;;;;;;;;;;;27.69;38.54;100553.55;2395138;74;51926;-76
2023/07/20 08:50:29;;;;;;;;;;;;;;;27.69;38.57;100545.94;2395322;74;50219;-76
2023/07/20 08:53:31;;;;;;;;;;;;;;;27.66;38.61;100543.72;2390166;74;52586;-76
2023/07/20 08:56:33;;;;;;;;;;;;;;;27.69;38.57;100550.02;2397776;74;51485;-76
2023/07/20 08:59:35;;;;;;;;;;;;;;;27.69;38.53;100546.75;2397840;73;50255;-76
2023/07/20 09:02:36;;;;;;;;;;;;;;;27.71;38.52;100551.41;2397873;73;51535;-76
2023/07/20 09:05:40;;;;;;;;;;;;;;;27.69;38.52;100560.89;2391598;73;52286;-76
2023/07/20 09:08:41;;;;;;;;;;;;;;;27.69;38.51;100551.38;2397539;74;50706;-76
2023/07/20 09:11:43;;;;;;;;;;;;;;;27.73;38.41;100547.11;2397695;73;50325;-76
2023/07/20 09:14:44;;;;;;;;;;;;;;;27.75;38.34;100551.22;2397605;74;50332;-76
2023/07/20 09:17:47;;;;;;;;;;;;;;;27.71;38.45;100557.39;2363377;74;52261;-76
2023/07/20 09:20:49;;;;;;;;;;;;;;;27.72;38.47;100559.03;2391635;74;51508;-76
2023/07/20 09:23:53;;;;;;;;;;;;;;;27.68;38.50;100545.66;2396755;74;50238;-76
2023/07/20 09:26:54;;;;;;;;;;;;;;;27.66;38.48;100551.88;2391852;74;22328;-76
2023/07/20 09:29:56;;;;;;;;;;;;;;;27.64;38.51;100550.75;2363990;74;49673;-76
2023/07/20 09:32:57;;;;;;;;;;;;;;;27.66;38.47;100556.77;2391817;73;50401;-76
2023/07/20 09:36:01;;;;;;;;;;;;;;;27.63;38.57;100555.09;2397398;74;49954;-76
2023/07/20 09:39:03;;;;;;;;;;;;;;;27.62;38.54;100558.34;2397272;73;51469;-76
2023/07/20 09:42:05;;;;;;;;;;;;;;;27.61;38.53;100553.14;2391498;74;51254;-75
2023/07/20 09:45:10;;;;;;;;;;;;;;;27.59;38.52;100549.30;2397663;74;50642;-76
2023/07/20 09:48:12;;;;;;;;;;;;;;;27.60;38.50;100559.66;2397337;73;50372;-76
2023/07/20 09:51:14;;;;;;;;;;;;;;;27.60;38.43;100544.72;2390546;74;51530;-75
2023/07/20 09:54:16;;;;;;;;;;;;;;;27.61;38.41;100553.14;2360268;74;52370;-75
2023/07/20 09:57:17;;;;;;;;;;;;;;;27.60;38.41;100551.51;2397593;74;51528;-75
2023/07/20 10:00:20;;;;;;;;;;;;;;;27.56;38.44;100557.41;2397713;73;51513;-76
2023/07/20 10:03:23;;;;;;;;;;;;;;;27.57;38.44;100560.98;2391924;74;50672;-75
2023/07/20 10:06:25;;;;;;;;;;;;;;;27.56;38.42;100565.56;2391372;74;52510;-76
2023/07/20 10:09:27;;;;;;;;;;;;;;;27.55;38.43;100561.21;2391651;74;50717;-75
2023/07/20 10:12:28;;;;;;;;;;;;;;;27.56;38.43;100564.20;2397446;73;50469;-75
2023/07/20 10:15:43;;;;;;;;;;;;;;;27.58;38.41;100563.43;2397674;74;50191;-75
2023/07/20 10:18:56;;;;;;;;;;;;;;;27.61;38.37;100564.02;2391394;74;51855;-75
2023/07/20 10:21:59;;;;;;;;;;;;;;;27.60;38.35;100569.17;2397533;74;51566;-75
2023/07/20 10:25:01;;;;;;;;;;;;;;;27.61;38.30;100566.73;2396586;74;54127;-75
2023/07/20 10:28:02;;;;;;;;;;;;;;;27.62;38.27;100562.94;2397305;74;51479;-76
2023/07/20 10:31:04;;;;;;;;;;;;;;;27.64;38.24;100560.26;2363783;74;50906;-75
2023/07/20 10:34:06;;;;;;;;;;;;;;;27.66;38.21;100564.92;2397583;74;50576;-76
2023/07/20 10:37:08;;;;;;;;;;;;;;;27.66;38.21;100569.54;2397191;73;51378;-75
2023/07/20 10:40:26;;;;;;;;;;;;;;;27.65;38.21;100560.57;2397567;74;50536;-76
2023/07/20 10:43:28;;;;;;;;;;;;;;;27.65;38.23;100571.98;2391476;74;52465;-75
2023/07/20 10:46:40;;;;;;;;;;;;;;;27.61;38.25;100566.73;2397379;74;51468;-76
2023/07/20 10:50:02;;;;;;;;;;;;;;;27.61;38.27;100568.09;2397549;73;50027;-77
2023/07/20 10:53:13;;;;;;;;;;;;;;;27.57;38.32;100569.95;2396811;74;50283;-76
2023/07/20 10:56:21;;;;;;;;;;;;;;;27.56;38.33;100577.80;2389385;74;49418;-76
2023/07/20 10:59:24;;;;;;;;;;;;;;;27.58;38.30;100563.97;2395437;74;50686;-76
2023/07/20 11:02:26;;;;;;;;;;;;;;;27.55;38.32;100561.21;2395226;73;50608;-76
2023/07/20 11:05:35;;;;;;;;;;;;;;;27.56;38.31;100573.72;2395064;74;50248;-76
2023/07/20 11:08:41;;;;;;;;;;;;;;;27.55;38.30;100573.44;2389193;74;51751;-76
2023/07/20 11:11:43;;;;;;;;;;;;;;;27.56;38.29;100575.08;2361918;74;50769;-75
2023/07/20 11:14:54;;;;;;;;;;;;;;;27.57;38.26;100578.10;2395100;73;51459;-75
2023/07/20 11:17:57;;;;;;;;;;;;;;;27.57;38.32;100580.00;2394844;74;50632;-76
2023/07/20 11:20:59;;;;;;;;;;;;;;;27.58;38.28;100589.25;2359090;74;51240;-76
2023/07/20 11:24:00;;;;;;;;;;;;;;;27.57;38.28;100589.52;2395976;74;50210;-76
2023/07/20 11:27:02;;;;;;;;;;;;;;;27.56;38.28;100590.03;2361153;74;50397;-76
2023/07/20 11:30:05;;;;;;;;;;;;;;;27.54;38.32;100589.47;2361474;74;50362;-76
2023/07/20 11:33:08;;;;;;;;;;;;;;;27.55;38.30;100588.39;2395139;74;50438;-76
2023/07/20 11:36:10;;;;;;;;;;;;;;;27.57;38.27;100591.69;2393854;74;50284;-77
2023/07/20 11:39:13;;;;;;;;;;;;;;;27.56;38.28;100592.75;2395076;74;50627;-76
2023/07/20 11:42:15;;;;;;;;;;;;;;;27.57;38.26;100586.26;2361693;74;51588;-76
2023/07/20 11:45:17;;;;;;;;;;;;;;;27.58;38.25;100583.00;2335041;74;52581;-76
2023/07/20 11:48:19;;;;;;;;;;;;;;;27.56;38.26;100577.80;2361522;74;51566;-75
2023/07/20 11:51:21;;;;;;;;;;;;;;;27.59;38.24;100572.41;2395072;74;51473;-75
2023/07/20 11:54:22;;;;;;;;;;;;;;;27.59;38.19;100571.05;2362898;74;50271;-76
2023/07/20 11:57:24;;;;;;;;;;;;;;;27.58;38.20;100570.23;2391525;73;51148;-75
2023/07/20 12:00:25;;;;;;;;;;;;;;;27.60;38.21;100571.89;2391668;73;50299;-76
2023/07/20 12:03:27;;;;;;;;;;;;;;;27.58;38.20;100570.77;2397750;73;50653;-75
2023/07/20 12:06:29;;;;;;;;;;;;;;;27.61;38.21;100569.45;2397394;74;50407;-76
2023/07/20 12:09:30;;;;;;;;;;;;;;;27.60;38.18;100580.87;2364033;74;49350;-75
2023/07/20 12:12:37;;;;;;;;;;;;;;;27.61;38.16;100564.84;2391770;74;51467;-75
2023/07/20 12:15:38;;;;;;;;;;;;;;;27.59;38.16;100558.81;2397716;74;51522;-76
2023/07/20 12:18:40;;;;;;;;;;;;;;;27.55;38.22;100563.92;2391513;74;51383;-76
2023/07/20 12:21:46;;;;;;;;;;;;;;;27.55;38.21;100573.98;2390780;73;52340;-75
2023/07/20 12:24:45;;;;;;;;;;;;;;;27.53;38.24;100567.42;2362127;74;22336;-76
2023/07/20 12:27:48;;;;;;;;;;;;;;;27.53;38.25;100574.76;2361524;74;51608;-75
2023/07/20 12:30:56;;;;;;;;;;;;;;;27.51;38.25;100564.66;2361526;74;50556;-76
2023/07/20 12:33:53;;;;;;;;;;;;;;;27.51;38.23;100575.53;2361372;74;22701;-75
2023/07/20 12:36:55;;;;;;;;;;;;;;;27.50;38.24;100568.45;2361460;74;51438;-75
2023/07/20 12:39:56;;;;;;;;;;;;;;;27.50;38.24;100569.27;2361911;74;50698;-75
2023/07/20 12:42:58;;;;;;;;;;;;;;;27.51;38.25;100577.73;2395285;74;51431;-75
2023/07/20 12:46:00;;;;;;;;;;;;;;;27.52;38.21;100573.94;2389221;74;51545;-75
2023/07/20 12:49:01;;;;;;;;;;;;;;;27.52;38.21;100573.94;2394704;74;50337;-74
2023/07/20 12:52:03;;;;;;;;;;;;;;;27.51;38.21;100575.53;2395781;74;50213;-76
2023/07/20 12:55:05;;;;;;;;;;;;;;;27.52;38.23;100567.14;2363264;74;50073;-75
2023/07/20 12:58:07;;;;;;;;;;;;;;;27.53;38.17;100570.14;2391330;73;52489;-77
2023/07/20 13:01:09;;;;;;;;;;;;;;;27.55;38.11;100566.64;2391503;74;50404;-75
2023/07/20 13:04:13;;;;;;;;;;;;;;;27.57;38.14;100574.56;2391782;74;50475;-75
2023/07/20 13:07:15;;;;;;;;;;;;;;;27.57;38.10;100565.87;2397079;74;51468;-75
2023/07/20 13:10:17;;;;;;;;;;;;;;;27.54;38.15;100566.37;2391557;74;52335;-75
2023/07/20 13:13:19;;;;;;;;;;;;;;;27.56;38.10;100564.75;2391548;74;51439;-76
2023/07/20 13:16:21;;;;;;;;;;;;;;;27.56;38.11;100556.59;2397228;74;50384;-76
2023/07/20 13:19:23;;;;;;;;;;;;;;;27.55;38.13;100563.11;2397476;74;50377;-76
2023/07/20 13:22:24;;;;;;;;;;;;;;;27.56;38.08;100551.16;2361361;74;51968;-75
2023/07/20 13:25:26;;;;;;;;;;;;;;;27.56;38.07;100547.08;2363562;74;51463;-75
2023/07/20 13:28:27;;;;;;;;;;;;;;;27.55;38.09;100547.62;2397229;73;51387;-77
2023/07/20 13:31:29;;;;;;;;;;;;;;;27.54;38.06;100545.98;2397462;74;51497;-76
2023/07/20 13:34:30;;;;;;;;;;;;;;;27.55;38.03;100546.80;2363975;74;51500;-75
2023/07/20 13:37:33;;;;;;;;;;;;;;;27.55;38.03;100547.62;2397450;73;50266;-76
2023/07/20 13:40:35;;;;;;;;;;;;;;;27.56;37.99;100547.08;2397434;73;51410;-76
2023/07/20 13:43:37;;;;;;;;;;;;;;;27.55;37.98;100542.19;2391539;73;51390;-76
2023/07/20 13:46:39;;;;;;;;;;;;;;;27.56;37.98;100536.20;2391353;74;50364;-76
2023/07/20 13:49:41;;;;;;;;;;;;;;;27.58;37.97;100529.45;2397475;74;49973;-76
2023/07/20 13:52:42;;;;;;;;;;;;;;;27.58;37.97;100524.56;2396576;74;52202;-76
2023/07/20 13:55:44;;;;;;;;;;;;;;;27.58;38.00;100524.02;2395266;74;51413;-75
2023/07/20 13:58:45;;;;;;;;;;;;;;;27.55;38.04;100531.31;2389007;74;50904;-75
2023/07/20 14:01:47;;;;;;;;;;;;;;;27.55;38.04;100516.36;2361684;74;51567;-75
2023/07/20 14:04:49;;;;;;;;;;;;;;;27.54;38.06;100520.16;2395360;74;50256;-76
2023/07/20 14:07:50;;;;;;;;;;;;;;;27.55;38.04;100517.72;2361682;74;51425;-76
2023/07/20 14:10:52;;;;;;;;;;;;;;;27.54;38.08;100513.37;2395335;74;50721;-75
2023/07/20 14:13:53;;;;;;;;;;;;;;;27.56;38.06;100522.08;2361697;74;51653;-76
2023/07/20 14:16:56;;;;;;;;;;;;;;;27.58;38.01;100511.79;2394777;74;50702;-75
2023/07/20 14:19:57;;;;;;;;;;;;;;;27.60;38.00;100518.34;2394910;73;50269;-75
2023/07/20 14:22:59;;;;;;;;;;;;;;;27.61;38.00;100512.38;2335441;74;51208;-75
2023/07/20 14:26:01;;;;;;;;;;;;;;;27.61;37.99;100530.86;2355899;75;50300;-76
2023/07/20 14:29:02;;;;;;;;;;;;;;;27.61;37.98;100519.16;2323607;75;50065;-75
2023/07/20 14:32:06;;;;;;;;;;;;;;;27.61;37.98;100520.52;2355907;75;50601;-75
2023/07/20 14:35:08;;;;;;;;;;;;;;;27.61;37.95;100515.91;2298121;75;51587;-75
2023/07/20 14:38:10;;;;;;;;;;;;;;;27.62;37.97;100511.29;2323902;75;49975;-76
2023/07/20 14:41:12;;;;;;;;;;;;;;;27.63;37.96;100507.52;2323618;75;50091;-76
2023/07/20 14:44:14;;;;;;;;;;;;;;;27.62;37.94;100507.21;2323783;75;51442;-75
2023/07/20 14:47:15;;;;;;;;;;;;;;;27.62;37.94;100504.49;2377575;74;51128;-75
2023/07/20 14:50:17;;;;;;;;;;;;;;;27.60;37.95;100503.94;2323737;75;51608;-76
2023/07/20 14:53:18;;;;;;;;;;;;;;;27.60;37.99;100512.09;2386400;74;50190;-75
2023/07/20 14:56:20;;;;;;;;;;;;;;;27.56;37.98;100503.05;2394622;74;50515;-75
2023/07/20 14:59:22;;;;;;;;;;;;;;;27.55;38.00;100501.41;2335399;74;50921;-77
2023/07/20 15:02:25;;;;;;;;;;;;;;;27.56;38.00;100504.95;2394982;74;51160;-75
2023/07/20 15:05:26;;;;;;;;;;;;;;;27.56;37.99;100500.33;2361678;74;50456;-75
2023/07/20 15:08:28;;;;;;;;;;;;;;;27.54;38.01;100498.42;2361194;74;51511;-74
2023/07/20 15:11:30;;;;;;;;;;;;;;;27.56;37.99;100494.08;2389724;74;52557;-74
2023/07/20 15:14:31;;;;;;;;;;;;;;;27.57;37.96;100492.48;2395613;73;50268;-75
2023/07/20 15:17:33;;;;;;;;;;;;;;;27.58;37.92;100487.33;2361444;74;50640;-75
2023/07/20 15:20:35;;;;;;;;;;;;;;;27.60;37.88;100495.78;2395115;73;50347;-74
2023/07/20 15:23:36;;;;;;;;;;;;;;;27.61;37.88;100494.16;2389292;73;51207;-75
2023/07/20 15:26:38;;;;;;;;;;;;;;;27.62;37.85;100494.98;2362032;74;50612;-75
2023/07/20 15:29:40;;;;;;;;;;;;;;;27.56;37.95;100493.53;2362723;74;50692;-75
2023/07/20 15:32:43;;;;;;;;;;;;;;;27.53;37.99;100498.11;2361911;74;51469;-76
2023/07/20 15:35:44;;;;;;;;;;;;;;;27.54;37.99;100498.93;2335268;74;49614;-76